Time;durP1;ratioP1;P1;durP2;ratioP2;P2;SDS_P1;SDS_P2;PMS_P1;PMS_P2;Temp;Humidity;BMP_temperature;BMP_pressure;BME280_temperature;BME280_humidity;BME280_pressure;Samples;Min_cycle;Max_cycle;Signal;HPM_P1;HPM_P2
2023/08/22 00:01:49;;;;;;;;;;;23.80;53.60;;;;;;5105793;27;19931;-60
2023/08/22 00:04:16;;;;;;;;;;;23.80;53.70;;;;;;5106890;27;19924;-60
2023/08/22 00:06:43;;;;;;;;;;;23.80;53.70;;;;;;5111162;27;19957;-59
2023/08/22 00:09:09;;;;;;;;;;;23.80;53.60;;;;;;5116556;27;20470;-60
2023/08/22 00:11:36;;;;;;;;;;;23.80;53.50;;;;;;5107386;27;19927;-60
2023/08/22 00:14:03;;;;;;;;;;;23.80;53.50;;;;;;5091664;27;19931;-60
2023/08/22 00:16:31;;;;;;;;;;;23.80;53.50;;;;;;5108334;27;19980;-60
2023/08/22 00:18:58;;;;;;;;;;;23.80;53.40;;;;;;5103704;28;19970;-60
2023/08/22 00:21:25;;;;;;;;;;;23.70;53.30;;;;;;5119568;27;19936;-60
2023/08/22 00:23:53;;;;;;;;;;;23.80;53.30;;;;;;5116085;27;19928;-60
2023/08/22 00:26:20;;;;;;;;;;;23.70;53.30;;;;;;5127328;27;20218;-60
2023/08/22 00:28:47;;;;;;;;;;;23.80;53.30;;;;;;5095561;28;19931;-60
2023/08/22 00:31:13;;;;;;;;;;;23.70;53.20;;;;;;5109542;27;19923;-60
2023/08/22 00:33:41;;;;;;;;;;;23.70;53.30;;;;;;5096960;27;19928;-60
2023/08/22 00:36:08;;;;;;;;;;;23.80;53.40;;;;;;5133439;27;19987;-60
2023/08/22 00:38:35;;;;;;;;;;;23.70;53.40;;;;;;5122746;27;19924;-60
2023/08/22 00:41:02;;;;;;;;;;;23.80;53.40;;;;;;5100103;27;19923;-60
2023/08/22 00:43:29;;;;;;;;;;;23.70;53.40;;;;;;5116752;27;19924;-60
2023/08/22 00:45:55;;;;;;;;;;;23.70;53.30;;;;;;5104673;27;20330;-60
2023/08/22 00:48:22;;;;;;;;;;;23.70;53.30;;;;;;5107727;28;19924;-60
2023/08/22 00:50:50;;;;;;;;;;;23.70;53.30;;;;;;5105907;27;19935;-60
2023/08/22 00:53:17;;;;;;;;;;;23.80;53.30;;;;;;5113691;27;19931;-60
2023/08/22 00:55:44;;;;;;;;;;;23.70;53.30;;;;;;5107417;27;19924;-59
2023/08/22 00:58:11;;;;;;;;;;;23.70;53.30;;;;;;5102968;27;20197;-59
2023/08/22 01:00:37;;;;;;;;;;;23.70;53.30;;;;;;5106832;27;20019;-60
2023/08/22 01:03:05;;;;;;;;;;;23.80;53.30;;;;;;5100842;28;19959;-59
2023/08/22 01:05:31;;;;;;;;;;;23.70;53.30;;;;;;5102556;28;19924;-59
2023/08/22 01:08:00;;;;;;;;;;;23.70;53.30;;;;;;5103026;28;19977;-59
2023/08/22 01:10:28;;;;;;;;;;;23.80;53.40;;;;;;5128661;27;19927;-60
2023/08/22 01:12:58;;;;;;;;;;;23.70;53.30;;;;;;5112205;27;20031;-59
2023/08/22 01:15:25;;;;;;;;;;;23.70;53.30;;;;;;5092271;28;20071;-59
2023/08/22 01:17:52;;;;;;;;;;;23.70;53.20;;;;;;5120864;27;19928;-58
2023/08/22 01:20:19;;;;;;;;;;;23.70;53.20;;;;;;5106455;27;20010;-60
2023/08/22 01:22:47;;;;;;;;;;;23.70;53.20;;;;;;5104881;28;19959;-60
2023/08/22 01:25:14;;;;;;;;;;;23.70;53.20;;;;;;5099875;27;19924;-60
2023/08/22 01:27:43;;;;;;;;;;;23.70;53.30;;;;;;5110893;27;19931;-61
2023/08/22 01:30:11;;;;;;;;;;;23.70;53.30;;;;;;5106676;27;19923;-60
2023/08/22 01:32:39;;;;;;;;;;;23.70;53.30;;;;;;5099175;28;19923;-60
2023/08/22 01:35:06;;;;;;;;;;;23.70;53.40;;;;;;5115649;27;19983;-60
2023/08/22 01:37:33;;;;;;;;;;;23.70;53.50;;;;;;5125450;27;19928;-59
2023/08/22 01:40:01;;;;;;;;;;;23.70;53.50;;;;;;5106536;27;19924;-60
2023/08/22 01:42:28;;;;;;;;;;;23.70;53.60;;;;;;5106611;27;19993;-59
2023/08/22 01:44:54;;;;;;;;;;;23.70;53.50;;;;;;5111690;27;20353;-59
2023/08/22 01:47:21;;;;;;;;;;;23.70;53.30;;;;;;5102163;28;19924;-60
2023/08/22 01:49:48;;;;;;;;;;;23.70;53.30;;;;;;5096404;27;19924;-60
2023/08/22 01:52:15;;;;;;;;;;;23.80;53.40;;;;;;5108743;28;19992;-59
2023/08/22 01:54:42;;;;;;;;;;;23.70;53.40;;;;;;5094904;27;20413;-60
2023/08/22 01:57:10;;;;;;;;;;;23.70;53.40;;;;;;5103047;28;19924;-60
2023/08/22 01:59:37;;;;;;;;;;;23.70;53.30;;;;;;5102616;27;19923;-60
2023/08/22 02:02:03;;;;;;;;;;;23.70;53.30;;;;;;5104948;27;20285;-59
2023/08/22 02:04:30;;;;;;;;;;;23.70;53.30;;;;;;5084941;28;19931;-60
2023/08/22 02:06:57;;;;;;;;;;;23.70;53.20;;;;;;5113091;27;19968;-60
2023/08/22 02:09:25;;;;;;;;;;;23.70;53.20;;;;;;5119885;27;19923;-60
2023/08/22 02:11:52;;;;;;;;;;;23.70;53.00;;;;;;5122628;27;19984;-60
2023/08/22 02:14:20;;;;;;;;;;;23.70;52.90;;;;;;5102056;28;19927;-59
2023/08/22 02:16:47;;;;;;;;;;;23.70;52.80;;;;;;5090857;28;19928;-60
2023/08/22 02:19:15;;;;;;;;;;;23.70;52.80;;;;;;5105690;27;19928;-60
2023/08/22 02:21:43;;;;;;;;;;;23.70;52.80;;;;;;5107839;27;22035;-60
2023/08/22 02:24:09;;;;;;;;;;;23.70;52.90;;;;;;5114237;27;19927;-60
2023/08/22 02:26:37;;;;;;;;;;;23.70;52.90;;;;;;5100453;27;20121;-60
2023/08/22 02:29:04;;;;;;;;;;;23.70;53.00;;;;;;5108897;27;19923;-60
2023/08/22 02:31:32;;;;;;;;;;;23.70;53.20;;;;;;5112167;28;20019;-60
2023/08/22 02:33:59;;;;;;;;;;;23.70;53.20;;;;;;5116765;27;19980;-60
2023/08/22 02:36:25;;;;;;;;;;;23.70;53.80;;;;;;5102755;28;19923;-60
2023/08/22 02:38:52;;;;;;;;;;;23.70;53.30;;;;;;5107333;27;20369;-60
2023/08/22 02:41:19;;;;;;;;;;;23.70;53.20;;;;;;5113659;28;20421;-60
2023/08/22 02:43:46;;;;;;;;;;;23.70;53.10;;;;;;5116322;27;19931;-60
2023/08/22 02:46:12;;;;;;;;;;;23.70;53.00;;;;;;5112669;27;19923;-60
2023/08/22 02:48:41;;;;;;;;;;;23.70;53.60;;;;;;5120676;27;19932;-60
2023/08/22 02:51:07;;;;;;;;;;;23.70;53.00;;;;;;5120024;27;20338;-59
2023/08/22 02:53:34;;;;;;;;;;;23.70;53.00;;;;;;5107794;27;20022;-58
2023/08/22 02:56:01;;;;;;;;;;;23.70;53.20;;;;;;5109285;27;20028;-59
2023/08/22 02:58:28;;;;;;;;;;;23.70;53.30;;;;;;5120064;27;19928;-60
2023/08/22 03:00:55;;;;;;;;;;;23.70;53.30;;;;;;5109151;27;19972;-59
2023/08/22 03:03:22;;;;;;;;;;;23.70;54.00;;;;;;5130876;27;19931;-60
2023/08/22 03:05:50;;;;;;;;;;;23.70;53.40;;;;;;5102560;27;20339;-59
2023/08/22 03:08:19;;;;;;;;;;;23.70;53.10;;;;;;5103096;27;20208;-60
2023/08/22 03:10:46;;;;;;;;;;;23.60;52.90;;;;;;5112009;27;19931;-60
2023/08/22 03:13:12;;;;;;;;;;;23.70;52.90;;;;;;5099436;28;19927;-60
2023/08/22 03:15:39;;;;;;;;;;;23.70;53.10;;;;;;5124592;27;20304;-60
2023/08/22 03:18:06;;;;;;;;;;;23.70;53.30;;;;;;5123890;27;19923;-59
2023/08/22 03:20:33;;;;;;;;;;;23.70;53.30;;;;;;5134274;27;19923;-60
2023/08/22 03:23:01;;;;;;;;;;;23.70;53.30;;;;;;5106662;28;19935;-59
2023/08/22 03:25:28;;;;;;;;;;;23.70;53.20;;;;;;5103216;28;19967;-59
2023/08/22 03:27:54;;;;;;;;;;;23.70;53.10;;;;;;5094250;27;19927;-60
2023/08/22 03:30:21;;;;;;;;;;;23.70;53.20;;;;;;5111941;27;19930;-60
2023/08/22 03:32:48;;;;;;;;;;;23.60;53.10;;;;;;5106236;27;19928;-60
2023/08/22 03:35:15;;;;;;;;;;;23.70;53.30;;;;;;5092178;28;19924;-60
2023/08/22 03:37:41;;;;;;;;;;;23.70;53.40;;;;;;5101860;27;19923;-60
2023/08/22 03:40:10;;;;;;;;;;;23.70;53.50;;;;;;5101181;28;19932;-60
2023/08/22 03:42:37;;;;;;;;;;;23.70;53.50;;;;;;5113711;27;19934;-60
2023/08/22 03:45:04;;;;;;;;;;;23.70;53.40;;;;;;5115851;27;19958;-60
2023/08/22 03:47:31;;;;;;;;;;;23.70;53.30;;;;;;5112289;27;19931;-60
2023/08/22 03:49:58;;;;;;;;;;;23.70;53.30;;;;;;5096889;28;19928;-60
2023/08/22 03:52:24;;;;;;;;;;;23.70;53.30;;;;;;5103757;28;19949;-60
2023/08/22 03:54:51;;;;;;;;;;;23.70;53.30;;;;;;5131096;27;19924;-60
2023/08/22 03:57:19;;;;;;;;;;;23.70;53.40;;;;;;5115590;27;19923;-60
2023/08/22 03:59:46;;;;;;;;;;;23.70;53.50;;;;;;5097257;27;19932;-60
2023/08/22 04:02:13;;;;;;;;;;;23.70;53.50;;;;;;5104299;27;19934;-60
2023/08/22 04:04:40;;;;;;;;;;;23.70;53.50;;;;;;5094531;28;20385;-61
2023/08/22 04:07:06;;;;;;;;;;;23.70;53.50;;;;;;5086168;27;19924;-60
2023/08/22 04:09:33;;;;;;;;;;;23.70;53.50;;;;;;5100986;28;19924;-60
2023/08/22 04:12:00;;;;;;;;;;;23.70;53.50;;;;;;5095693;28;19927;-60
2023/08/22 04:14:28;;;;;;;;;;;23.70;53.50;;;;;;5099243;28;19988;-59
2023/08/22 04:16:55;;;;;;;;;;;23.70;53.50;;;;;;5087564;28;20273;-59
2023/08/22 04:19:22;;;;;;;;;;;23.70;53.40;;;;;;5102675;28;19980;-60
2023/08/22 04:21:48;;;;;;;;;;;23.70;53.40;;;;;;5104274;27;20356;-60
2023/08/22 04:24:15;;;;;;;;;;;23.70;53.50;;;;;;5100639;28;19927;-59
2023/08/22 04:26:42;;;;;;;;;;;23.70;53.50;;;;;;5087422;28;19954;-59
2023/08/22 04:29:09;;;;;;;;;;;23.70;53.50;;;;;;5103058;27;19919;-59
2023/08/22 04:31:37;;;;;;;;;;;23.70;53.50;;;;;;5105651;27;19923;-59
2023/08/22 04:34:04;;;;;;;;;;;23.70;53.50;;;;;;5125434;27;19924;-59
2023/08/22 04:36:31;;;;;;;;;;;23.70;53.50;;;;;;5090647;28;19939;-60
2023/08/22 04:38:57;;;;;;;;;;;23.70;53.50;;;;;;5112129;27;19928;-60
2023/08/22 04:41:24;;;;;;;;;;;23.70;53.60;;;;;;5105750;28;19932;-60
2023/08/22 04:43:51;;;;;;;;;;;23.70;53.60;;;;;;5127949;27;19931;-59
2023/08/22 04:46:18;;;;;;;;;;;23.70;53.70;;;;;;5106507;27;19934;-60
2023/08/22 04:48:46;;;;;;;;;;;23.70;53.70;;;;;;5123423;27;19924;-60
2023/08/22 04:51:12;;;;;;;;;;;23.70;53.80;;;;;;5127224;27;20403;-60
2023/08/22 04:53:39;;;;;;;;;;;23.70;53.80;;;;;;5110626;28;19928;-60
2023/08/22 04:56:06;;;;;;;;;;;23.70;53.80;;;;;;5100646;27;19924;-60
2023/08/22 04:58:33;;;;;;;;;;;23.70;53.70;;;;;;5104237;27;19954;-59
2023/08/22 05:00:59;;;;;;;;;;;23.70;53.80;;;;;;5104805;27;19934;-59
2023/08/22 05:03:26;;;;;;;;;;;23.70;53.80;;;;;;5105224;27;19927;-59
2023/08/22 05:05:55;;;;;;;;;;;23.70;53.80;;;;;;5096638;27;20419;-59
2023/08/22 05:08:21;;;;;;;;;;;23.70;53.90;;;;;;5094815;28;19977;-60
2023/08/22 05:10:48;;;;;;;;;;;23.70;54.00;;;;;;5121544;27;19955;-60
2023/08/22 05:13:15;;;;;;;;;;;23.70;54.10;;;;;;5112362;28;19931;-59
2023/08/22 05:15:42;;;;;;;;;;;23.70;54.10;;;;;;5098672;28;19981;-60
2023/08/22 05:18:09;;;;;;;;;;;23.70;54.10;;;;;;5093298;28;19928;-60
2023/08/22 05:20:37;;;;;;;;;;;23.70;54.10;;;;;;5111747;27;19924;-60
2023/08/22 05:23:05;;;;;;;;;;;23.70;54.10;;;;;;5092111;28;19923;-60
2023/08/22 05:25:32;;;;;;;;;;;23.70;54.10;;;;;;5092062;28;20379;-60
2023/08/22 05:27:59;;;;;;;;;;;23.70;54.10;;;;;;5104551;28;20335;-60
2023/08/22 05:30:26;;;;;;;;;;;23.70;54.10;;;;;;5092648;28;19984;-60
2023/08/22 05:32:53;;;;;;;;;;;23.70;54.10;;;;;;5094945;28;19931;-60
2023/08/22 05:35:20;;;;;;;;;;;23.70;54.10;;;;;;5115285;27;19987;-60
2023/08/22 05:37:46;;;;;;;;;;;23.70;54.10;;;;;;5093373;27;19932;-60
2023/08/22 05:40:14;;;;;;;;;;;23.70;54.10;;;;;;5092935;28;19927;-61
2023/08/22 05:42:41;;;;;;;;;;;23.70;54.20;;;;;;5086682;28;20049;-60
2023/08/22 05:45:08;;;;;;;;;;;23.70;54.20;;;;;;5088689;28;19935;-60
2023/08/22 05:47:35;;;;;;;;;;;23.70;54.20;;;;;;5094693;28;19931;-60
2023/08/22 05:50:03;;;;;;;;;;;23.70;54.20;;;;;;5119675;27;20278;-60
2023/08/22 05:52:30;;;;;;;;;;;23.70;54.20;;;;;;5098677;28;19934;-60
2023/08/22 05:54:57;;;;;;;;;;;23.70;54.20;;;;;;5092454;28;19984;-60
2023/08/22 05:57:25;;;;;;;;;;;23.70;54.20;;;;;;5094586;28;19932;-60
2023/08/22 05:59:52;;;;;;;;;;;23.80;54.40;;;;;;5095458;28;19931;-60
2023/08/22 06:02:19;;;;;;;;;;;23.70;54.30;;;;;;5113704;27;20206;-60
2023/08/22 06:04:46;;;;;;;;;;;23.70;54.30;;;;;;5096351;27;19920;-60
2023/08/22 06:07:12;;;;;;;;;;;23.80;54.40;;;;;;5095889;28;19927;-60
2023/08/22 06:09:39;;;;;;;;;;;23.70;54.30;;;;;;5096411;28;19923;-60
2023/08/22 06:12:06;;;;;;;;;;;23.70;54.30;;;;;;5117779;28;19938;-59
2023/08/22 06:14:34;;;;;;;;;;;23.70;54.30;;;;;;5094089;28;19963;-60
2023/08/22 06:17:02;;;;;;;;;;;23.80;54.40;;;;;;5098953;28;19928;-60
2023/08/22 06:19:29;;;;;;;;;;;23.70;54.30;;;;;;5097451;28;19966;-60
2023/08/22 06:21:56;;;;;;;;;;;23.70;54.40;;;;;;5121941;28;19931;-60
2023/08/22 06:24:23;;;;;;;;;;;23.80;54.50;;;;;;5098278;28;19927;-60
2023/08/22 06:26:49;;;;;;;;;;;23.70;54.40;;;;;;5106844;28;19970;-59
2023/08/22 06:29:16;;;;;;;;;;;23.70;54.40;;;;;;5116726;28;19923;-59
2023/08/22 06:31:45;;;;;;;;;;;23.80;54.50;;;;;;5097634;28;19924;-60
2023/08/22 06:34:11;;;;;;;;;;;23.70;54.40;;;;;;5108743;28;19938;-60
2023/08/22 06:36:38;;;;;;;;;;;23.80;54.50;;;;;;5102250;28;19924;-60
2023/08/22 06:39:06;;;;;;;;;;;23.80;54.50;;;;;;5114730;28;20025;-61
2023/08/22 06:41:35;;;;;;;;;;;23.80;54.50;;;;;;5105588;28;20318;-61
2023/08/22 06:44:07;;;;;;;;;;;23.80;54.50;;;;;;5101739;28;19928;-62
2023/08/22 06:46:34;;;;;;;;;;;23.70;54.20;;;;;;5102562;28;19932;-63
2023/08/22 06:49:03;;;;;;;;;;;23.80;53.70;;;;;;5099497;28;20077;-65
2023/08/22 06:51:30;;;;;;;;;;;23.70;53.50;;;;;;5098417;28;19924;-63
2023/08/22 06:53:56;;;;;;;;;;;23.70;53.50;;;;;;5093513;28;19928;-63
2023/08/22 06:56:23;;;;;;;;;;;23.60;53.50;;;;;;5090554;28;19923;-63
2023/08/22 06:58:50;;;;;;;;;;;23.60;53.60;;;;;;5114469;28;19924;-63
2023/08/22 07:01:16;;;;;;;;;;;23.60;53.70;;;;;;5115040;28;19988;-63
2023/08/22 07:03:43;;;;;;;;;;;23.50;53.80;;;;;;5112160;28;19931;-62
2023/08/22 07:06:11;;;;;;;;;;;23.50;53.90;;;;;;5102144;27;20451;-63
2023/08/22 07:08:38;;;;;;;;;;;23.50;54.00;;;;;;5096855;28;19924;-62
2023/08/22 07:11:05;;;;;;;;;;;23.40;53.90;;;;;;5100116;28;20303;-64
2023/08/22 07:13:33;;;;;;;;;;;23.40;54.10;;;;;;5100899;28;20461;-61
2023/08/22 07:16:00;;;;;;;;;;;23.40;54.20;;;;;;5097730;28;19976;-63
2023/08/22 07:18:28;;;;;;;;;;;23.40;54.30;;;;;;5110115;28;19924;-64
2023/08/22 07:20:54;;;;;;;;;;;23.40;54.40;;;;;;5128670;27;19924;-63
2023/08/22 07:23:23;;;;;;;;;;;23.30;54.40;;;;;;5092195;28;20011;-61
2023/08/22 07:25:50;;;;;;;;;;;23.30;54.50;;;;;;5096820;28;19923;-64
2023/08/22 07:28:16;;;;;;;;;;;23.30;54.60;;;;;;5100443;28;19981;-63
2023/08/22 07:30:45;;;;;;;;;;;23.30;54.50;;;;;;5097321;27;19928;-62
2023/08/22 07:33:11;;;;;;;;;;;23.30;54.50;;;;;;5123238;27;19981;-62
2023/08/22 07:35:38;;;;;;;;;;;23.30;54.50;;;;;;5097390;27;19930;-62
2023/08/22 07:38:05;;;;;;;;;;;23.30;54.60;;;;;;5098647;28;19927;-62
2023/08/22 07:40:33;;;;;;;;;;;23.30;54.60;;;;;;5105061;27;19968;-60
2023/08/22 07:43:00;;;;;;;;;;;23.30;54.60;;;;;;5099945;27;19923;-60
2023/08/22 07:45:27;;;;;;;;;;;23.30;54.50;;;;;;5099923;28;20048;-61
2023/08/22 07:47:54;;;;;;;;;;;23.30;54.60;;;;;;5097852;28;20323;-60
2023/08/22 07:50:21;;;;;;;;;;;23.30;54.60;;;;;;5100076;28;19924;-60
2023/08/22 07:52:48;;;;;;;;;;;23.40;54.80;;;;;;5115961;27;19924;-59
2023/08/22 07:55:14;;;;;;;;;;;23.40;54.70;;;;;;5099877;28;19931;-62
2023/08/22 07:57:43;;;;;;;;;;;23.40;54.70;;;;;;5097598;27;19922;-61
2023/08/22 08:00:11;;;;;;;;;;;23.40;54.70;;;;;;5114713;27;19920;-61
2023/08/22 08:02:38;;;;;;;;;;;23.40;54.60;;;;;;5115705;27;19924;-63
2023/08/22 08:05:06;;;;;;;;;;;23.50;54.70;;;;;;5102141;27;19923;-63
2023/08/22 08:07:33;;;;;;;;;;;23.50;54.60;;;;;;5114036;28;19928;-63
2023/08/22 08:10:00;;;;;;;;;;;23.50;54.60;;;;;;5113510;27;19924;-65
2023/08/22 08:12:27;;;;;;;;;;;23.50;54.50;;;;;;5103737;27;20368;-65
2023/08/22 08:14:55;;;;;;;;;;;23.50;54.50;;;;;;5103665;27;19928;-63
2023/08/22 08:17:22;;;;;;;;;;;23.50;54.40;;;;;;5095661;28;19924;-66
2023/08/22 08:19:49;;;;;;;;;;;23.60;54.50;;;;;;5096926;28;19943;-61
2023/08/22 08:22:15;;;;;;;;;;;23.60;54.50;;;;;;5096085;28;19924;-64
2023/08/22 08:24:43;;;;;;;;;;;23.60;54.40;;;;;;5132296;27;19924;-63
2023/08/22 08:27:09;;;;;;;;;;;23.60;54.50;;;;;;5114310;27;19931;-63
2023/08/22 08:29:36;;;;;;;;;;;23.60;54.50;;;;;;5096647;27;19923;-63
2023/08/22 08:32:05;;;;;;;;;;;23.60;54.50;;;;;;5127150;27;19924;-62
2023/08/22 08:34:31;;;;;;;;;;;23.70;54.60;;;;;;5105231;27;19963;-63
2023/08/22 08:36:58;;;;;;;;;;;23.70;54.50;;;;;;5095527;28;19924;-66
2023/08/22 08:39:25;;;;;;;;;;;23.70;54.50;;;;;;5092234;28;19924;-63
2023/08/22 08:41:54;;;;;;;;;;;23.70;54.50;;;;;;5119584;27;20300;-62
2023/08/22 08:44:21;;;;;;;;;;;23.70;54.50;;;;;;5097066;28;19935;-65
2023/08/22 08:46:48;;;;;;;;;;;23.70;54.50;;;;;;5131656;27;19931;-63
2023/08/22 08:49:16;;;;;;;;;;;23.80;54.60;;;;;;5113483;27;19927;-62
2023/08/22 08:51:43;;;;;;;;;;;23.80;54.50;;;;;;5099906;27;19930;-62
2023/08/22 08:54:10;;;;;;;;;;;23.80;54.50;;;;;;5101806;27;19924;-62
2023/08/22 08:56:37;;;;;;;;;;;23.80;54.50;;;;;;5106207;27;19977;-62
2023/08/22 08:59:04;;;;;;;;;;;23.80;54.50;;;;;;5104492;27;19928;-61
2023/08/22 09:01:30;;;;;;;;;;;23.80;54.50;;;;;;5124837;27;19947;-63
2023/08/22 09:03:57;;;;;;;;;;;23.90;54.70;;;;;;5100026;27;19976;-62
2023/08/22 09:06:25;;;;;;;;;;;23.80;54.60;;;;;;5112886;28;19935;-63
2023/08/22 09:09:01;;;;;;;;;;;23.90;54.60;;;;;;5097975;27;20010;-62
2023/08/22 09:11:28;;;;;;;;;;;23.90;54.50;;;;;;5108656;27;19924;-62
2023/08/22 09:13:55;;;;;;;;;;;23.90;54.50;;;;;;5097909;27;19984;-63
2023/08/22 09:16:23;;;;;;;;;;;23.90;54.50;;;;;;5102173;27;19927;-61
2023/08/22 09:18:50;;;;;;;;;;;23.90;54.50;;;;;;5107095;27;19923;-62
2023/08/22 09:21:17;;;;;;;;;;;24.00;54.60;;;;;;5110613;27;20412;-60
2023/08/22 09:23:49;;;;;;;;;;;23.90;54.50;;;;;;5121805;27;19934;-61
2023/08/22 09:26:16;;;;;;;;;;;24.00;54.70;;;;;;5094000;28;19931;-61
2023/08/22 09:28:43;;;;;;;;;;;23.90;54.50;;;;;;5099075;27;19928;-61
2023/08/22 09:31:10;;;;;;;;;;;24.00;54.60;;;;;;5104554;28;19930;-62
2023/08/22 09:33:44;;;;;;;;;;;24.00;54.70;;;;;;5112192;27;19923;-61
2023/08/22 09:36:11;;;;;;;;;;;23.90;54.60;;;;;;5106884;27;19962;-62
2023/08/22 09:38:49;;;;;;;;;;;23.90;54.70;;;;;;5098952;28;19985;-62
2023/08/22 09:41:15;;;;;;;;;;;23.90;54.70;;;;;;5102401;28;19928;-62
2023/08/22 09:43:42;;;;;;;;;;;24.00;54.80;;;;;;5109347;27;19941;-62
2023/08/22 09:46:09;;;;;;;;;;;24.00;54.80;;;;;;5095352;28;19924;-61
2023/08/22 09:48:36;;;;;;;;;;;24.00;54.80;;;;;;5119186;27;19923;-61
2023/08/22 09:51:03;;;;;;;;;;;24.00;54.90;;;;;;5106102;28;19923;-62
2023/08/22 09:53:29;;;;;;;;;;;24.00;54.90;;;;;;5120848;27;19930;-61
2023/08/22 09:55:58;;;;;;;;;;;24.00;55.00;;;;;;5094514;27;19924;-64
2023/08/22 09:58:24;;;;;;;;;;;24.00;54.90;;;;;;5098809;28;19973;-60
2023/08/22 10:00:52;;;;;;;;;;;24.00;55.00;;;;;;5102816;28;19923;-61
2023/08/22 10:03:18;;;;;;;;;;;24.00;55.00;;;;;;5106878;27;19931;-61
2023/08/22 10:05:46;;;;;;;;;;;24.10;55.20;;;;;;5110390;27;19973;-60
2023/08/22 10:08:12;;;;;;;;;;;24.00;55.10;;;;;;5096059;28;19973;-60
2023/08/22 10:10:39;;;;;;;;;;;24.10;55.30;;;;;;5102141;28;20493;-60
2023/08/22 10:13:06;;;;;;;;;;;24.10;55.20;;;;;;5132501;27;19931;-61
2023/08/22 10:15:35;;;;;;;;;;;24.10;55.30;;;;;;5108270;28;19924;-60
2023/08/22 10:18:02;;;;;;;;;;;24.10;55.30;;;;;;5102415;28;19924;-61
2023/08/22 10:20:29;;;;;;;;;;;24.10;55.30;;;;;;5098438;28;19924;-62
2023/08/22 10:22:58;;;;;;;;;;;24.10;55.30;;;;;;5102775;28;19923;-59
2023/08/22 10:25:25;;;;;;;;;;;24.10;55.40;;;;;;5122150;27;19931;-60
2023/08/22 10:27:51;;;;;;;;;;;24.10;55.40;;;;;;5098062;28;19931;-61
2023/08/22 10:30:21;;;;;;;;;;;24.10;55.40;;;;;;5096862;28;19924;-61
2023/08/22 10:33:02;;;;;;;;;;;24.10;55.60;;;;;;5099120;28;19927;-60
2023/08/22 10:35:29;;;;;;;;;;;24.10;55.70;;;;;;5105255;28;19924;-60
2023/08/22 10:37:56;;;;;;;;;;;24.10;55.70;;;;;;5093549;28;20270;-61
2023/08/22 10:40:29;;;;;;;;;;;24.10;55.70;;;;;;5112624;28;19928;-62
2023/08/22 10:43:04;;;;;;;;;;;24.10;55.70;;;;;;5129673;27;20301;-61
2023/08/22 10:45:38;;;;;;;;;;;24.10;55.80;;;;;;5120322;27;19930;-61
2023/08/22 10:48:11;;;;;;;;;;;24.10;56.40;;;;;;5104259;27;19946;-62
2023/08/22 10:50:40;;;;;;;;;;;24.10;55.90;;;;;;5107863;28;19947;-62
2023/08/22 10:53:17;;;;;;;;;;;24.10;56.10;;;;;;5102818;27;19927;-62
2023/08/22 10:55:44;;;;;;;;;;;24.10;56.40;;;;;;5119867;27;19931;-62
2023/08/22 10:58:26;;;;;;;;;;;24.20;56.40;;;;;;5127630;27;19931;-62
2023/08/22 11:00:54;;;;;;;;;;;24.20;56.40;;;;;;5097494;27;19928;-62
2023/08/22 11:03:21;;;;;;;;;;;24.20;56.60;;;;;;5131830;27;19924;-62
2023/08/22 11:05:48;;;;;;;;;;;24.30;56.80;;;;;;5117854;27;19923;-62
2023/08/22 11:08:14;;;;;;;;;;;24.30;56.70;;;;;;5123939;27;19923;-62
2023/08/22 11:10:43;;;;;;;;;;;24.30;56.60;;;;;;5123307;27;19927;-62
2023/08/22 11:13:10;;;;;;;;;;;24.30;56.60;;;;;;5105626;28;19924;-62
2023/08/22 11:15:37;;;;;;;;;;;24.30;56.50;;;;;;5103159;27;19927;-62
2023/08/22 11:18:06;;;;;;;;;;;24.30;56.60;;;;;;5124669;27;19964;-63
2023/08/22 11:20:33;;;;;;;;;;;24.30;56.90;;;;;;5111751;27;19924;-61
2023/08/22 11:23:00;;;;;;;;;;;24.30;56.80;;;;;;5104699;28;20418;-62
2023/08/22 11:25:27;;;;;;;;;;;24.30;56.90;;;;;;5101183;28;19963;-62
2023/08/22 11:27:54;;;;;;;;;;;24.30;57.00;;;;;;5105960;27;19952;-62
2023/08/22 11:30:21;;;;;;;;;;;24.30;57.10;;;;;;5104861;28;19958;-61
2023/08/22 11:32:48;;;;;;;;;;;24.30;57.10;;;;;;5098614;28;19931;-62
2023/08/22 11:35:16;;;;;;;;;;;24.40;57.00;;;;;;5099554;28;19927;-62
2023/08/22 11:37:43;;;;;;;;;;;24.40;56.70;;;;;;5104283;27;19973;-63
2023/08/22 11:40:12;;;;;;;;;;;24.40;56.50;;;;;;5104139;28;20044;-62
2023/08/22 11:42:39;;;;;;;;;;;24.50;56.40;;;;;;5125945;27;19935;-64
2023/08/22 11:45:06;;;;;;;;;;;24.50;56.30;;;;;;5098079;28;19923;-64
2023/08/22 11:47:37;;;;;;;;;;;24.50;56.50;;;;;;5106886;27;19923;-64
2023/08/22 11:50:04;;;;;;;;;;;24.50;56.70;;;;;;5103447;27;19966;-62
2023/08/22 11:52:32;;;;;;;;;;;24.50;56.60;;;;;;5109679;27;19960;-63
2023/08/22 11:55:04;;;;;;;;;;;24.50;56.50;;;;;;5088953;28;19932;-63
2023/08/22 11:57:31;;;;;;;;;;;24.50;56.40;;;;;;5116057;27;19963;-63
2023/08/22 11:59:59;;;;;;;;;;;24.50;56.50;;;;;;5099510;27;20384;-62
2023/08/22 12:02:26;;;;;;;;;;;24.60;56.50;;;;;;5108132;27;19927;-61
2023/08/22 12:04:55;;;;;;;;;;;24.60;56.50;;;;;;5117317;27;19973;-62
2023/08/22 12:07:22;;;;;;;;;;;24.60;56.40;;;;;;5101125;28;19927;-62
2023/08/22 12:10:00;;;;;;;;;;;24.60;56.40;;;;;;5100692;27;19928;-62
2023/08/22 12:12:26;;;;;;;;;;;24.60;56.40;;;;;;5106969;27;19927;-62
2023/08/22 12:14:53;;;;;;;;;;;24.60;56.40;;;;;;5121139;27;19924;-62
2023/08/22 12:17:20;;;;;;;;;;;24.60;56.30;;;;;;5129867;27;20365;-62
2023/08/22 12:19:47;;;;;;;;;;;24.60;56.10;;;;;;5116236;27;19931;-62
2023/08/22 12:22:13;;;;;;;;;;;24.60;55.80;;;;;;5108897;27;19930;-62
2023/08/22 12:24:41;;;;;;;;;;;24.70;55.70;;;;;;5097495;27;19931;-62
2023/08/22 12:27:10;;;;;;;;;;;24.80;55.30;;;;;;5106916;28;19969;-61
2023/08/22 12:29:36;;;;;;;;;;;24.70;55.10;;;;;;5129864;27;20009;-61
2023/08/22 12:32:03;;;;;;;;;;;24.80;55.20;;;;;;5116602;27;20004;-61
2023/08/22 12:34:30;;;;;;;;;;;24.80;55.10;;;;;;5106430;27;19927;-62
2023/08/22 12:36:58;;;;;;;;;;;24.80;54.90;;;;;;5100120;27;19931;-62
2023/08/22 12:39:25;;;;;;;;;;;24.80;54.70;;;;;;5100499;28;19931;-62
2023/08/22 12:41:51;;;;;;;;;;;24.80;54.30;;;;;;5113207;28;19969;-61
2023/08/22 12:44:19;;;;;;;;;;;24.90;54.00;;;;;;5122232;27;19935;-62
2023/08/22 12:46:46;;;;;;;;;;;24.90;53.40;;;;;;5101218;28;20411;-61
2023/08/22 12:49:13;;;;;;;;;;;24.90;53.40;;;;;;5103584;28;19924;-61
2023/08/22 12:51:40;;;;;;;;;;;24.90;53.10;;;;;;5095773;27;20369;-61
2023/08/22 12:54:06;;;;;;;;;;;24.90;52.70;;;;;;5117959;27;20024;-62
2023/08/22 12:56:33;;;;;;;;;;;24.90;52.80;;;;;;5099808;27;19923;-62
2023/08/22 12:59:00;;;;;;;;;;;24.90;53.10;;;;;;5108769;28;19931;-63
2023/08/22 13:01:28;;;;;;;;;;;24.90;52.50;;;;;;5113587;27;19936;-61
2023/08/22 13:03:55;;;;;;;;;;;24.90;52.50;;;;;;5097617;27;19930;-61
2023/08/22 13:06:22;;;;;;;;;;;25.00;52.80;;;;;;5109452;27;19927;-61
2023/08/22 13:08:49;;;;;;;;;;;25.00;52.10;;;;;;5098399;27;19971;-61
2023/08/22 13:11:18;;;;;;;;;;;25.00;52.20;;;;;;5108133;28;19932;-62
2023/08/22 13:13:44;;;;;;;;;;;25.00;52.50;;;;;;5116862;27;19935;-61
2023/08/22 13:16:11;;;;;;;;;;;25.00;52.20;;;;;;5103374;27;19923;-62
2023/08/22 13:18:39;;;;;;;;;;;25.10;52.10;;;;;;5106369;27;19930;-63
2023/08/22 13:21:06;;;;;;;;;;;25.10;52.10;;;;;;5131347;27;19930;-62
2023/08/22 13:23:33;;;;;;;;;;;25.10;52.10;;;;;;5098517;28;19977;-62
2023/08/22 13:25:59;;;;;;;;;;;25.10;52.20;;;;;;5102361;27;19931;-61
2023/08/22 13:28:26;;;;;;;;;;;25.20;52.20;;;;;;5104185;27;19923;-61
2023/08/22 13:30:53;;;;;;;;;;;25.20;52.30;;;;;;5128729;27;19924;-61
2023/08/22 13:33:20;;;;;;;;;;;25.20;52.10;;;;;;5098881;28;20010;-62
2023/08/22 13:35:48;;;;;;;;;;;25.20;51.40;;;;;;5096574;28;19973;-61
2023/08/22 13:38:14;;;;;;;;;;;25.20;50.20;;;;;;5117460;27;19947;-62
2023/08/22 13:40:41;;;;;;;;;;;25.20;49.80;;;;;;5106432;27;19923;-61
2023/08/22 13:43:08;;;;;;;;;;;25.30;48.30;;;;;;5125651;27;19969;-60
2023/08/22 13:45:35;;;;;;;;;;;25.20;49.10;;;;;;5095317;28;20243;-62
2023/08/22 13:48:02;;;;;;;;;;;25.20;49.00;;;;;;5127672;27;19973;-64
2023/08/22 13:50:29;;;;;;;;;;;25.20;49.00;;;;;;5099561;28;19924;-62
2023/08/22 13:52:57;;;;;;;;;;;25.30;48.40;;;;;;5109002;27;19972;-61
2023/08/22 13:55:24;;;;;;;;;;;25.30;48.70;;;;;;5097510;28;19924;-61
2023/08/22 13:57:51;;;;;;;;;;;25.30;47.50;;;;;;5094809;28;20369;-61
2023/08/22 14:00:18;;;;;;;;;;;25.30;48.10;;;;;;5093447;28;20369;-61
2023/08/22 14:02:45;;;;;;;;;;;25.30;49.30;;;;;;5101823;27;19984;-61
2023/08/22 14:05:12;;;;;;;;;;;25.30;50.10;;;;;;5096537;28;19981;-60
2023/08/22 14:07:38;;;;;;;;;;;25.40;50.50;;;;;;5096476;28;20026;-61
2023/08/22 14:10:09;;;;;;;;;;;25.40;49.80;;;;;;5096596;27;20270;-60
2023/08/22 14:12:35;;;;;;;;;;;25.50;49.90;;;;;;5099529;28;20373;-62
2023/08/22 14:15:03;;;;;;;;;;;25.50;49.90;;;;;;5115377;27;19924;-60
2023/08/22 14:17:29;;;;;;;;;;;25.50;50.00;;;;;;5094227;28;19959;-60